sensor_id;sensor_type;location;lat;lon;timestamp;temperature;humidity
35563;DHT22;21665;40.108;18.302;2022-10-23T00:01:40;16.60;99.90
35563;DHT22;21665;40.108;18.302;2022-10-23T00:04:11;16.60;99.90
35563;DHT22;21665;40.108;18.302;2022-10-23T00:06:39;16.60;99.90
35563;DHT22;21665;40.108;18.302;2022-10-23T00:09:07;16.50;99.90
35563;DHT22;21665;40.108;18.302;2022-10-23T00:11:35;16.50;99.90
35563;DHT22;21665;40.108;18.302;2022-10-23T00:14:07;16.50;99.90
35563;DHT22;21665;40.108;18.302;2022-10-23T00:16:34;16.50;99.90
35563;DHT22;21665;40.108;18.302;2022-10-23T00:19:07;16.50;99.90
35563;DHT22;21665;40.108;18.302;2022-10-23T00:21:52;16.50;99.90
35563;DHT22;21665;40.108;18.302;2022-10-23T00:24:27;16.50;99.90
35563;DHT22;21665;40.108;18.302;2022-10-23T00:26:56;16.50;99.90
35563;DHT22;21665;40.108;18.302;2022-10-23T00:29:23;16.50;99.90
35563;DHT22;21665;40.108;18.302;2022-10-23T00:31:54;16.40;99.90
35563;DHT22;21665;40.108;18.302;2022-10-23T00:34:20;16.40;99.90
35563;DHT22;21665;40.108;18.302;2022-10-23T00:36:53;16.40;99.90
35563;DHT22;21665;40.108;18.302;2022-10-23T00:39:20;16.40;99.90
35563;DHT22;21665;40.108;18.302;2022-10-23T00:41:46;16.30;99.90
35563;DHT22;21665;40.108;18.302;2022-10-23T00:46:45;16.40;99.90
35563;DHT22;21665;40.108;18.302;2022-10-23T00:49:13;16.40;99.90
35563;DHT22;21665;40.108;18.302;2022-10-23T00:51:50;16.40;99.90
35563;DHT22;21665;40.108;18.302;2022-10-23T00:54:20;16.40;99.90
35563;DHT22;21665;40.108;18.302;2022-10-23T00:56:48;16.40;99.90
35563;DHT22;21665;40.108;18.302;2022-10-23T00:59:15;16.50;99.90
35563;DHT22;21665;40.108;18.302;2022-10-23T01:01:41;16.50;99.90
35563;DHT22;21665;40.108;18.302;2022-10-23T01:04:08;16.50;99.90
35563;DHT22;21665;40.108;18.302;2022-10-23T01:07:03;16.50;99.90
35563;DHT22;21665;40.108;18.302;2022-10-23T01:12:40;16.50;99.90
35563;DHT22;21665;40.108;18.302;2022-10-23T01:15:31;16.50;99.90
35563;DHT22;21665;40.108;18.302;2022-10-23T01:21:12;16.50;99.90
35563;DHT22;21665;40.108;18.302;2022-10-23T01:35:24;16.30;99.90
35563;DHT22;21665;40.108;18.302;2022-10-23T01:38:05;16.40;99.90
35563;DHT22;21665;40.108;18.302;2022-10-23T01:40:48;16.30;99.90
35563;DHT22;21665;40.108;18.302;2022-10-23T01:43:24;16.40;99.90
35563;DHT22;21665;40.108;18.302;2022-10-23T01:45:57;16.40;99.90
35563;DHT22;21665;40.108;18.302;2022-10-23T01:48:29;16.40;99.90
35563;DHT22;21665;40.108;18.302;2022-10-23T01:51:02;16.40;99.90
35563;DHT22;21665;40.108;18.302;2022-10-23T01:53:51;16.40;99.90
35563;DHT22;21665;40.108;18.302;2022-10-23T01:56:27;16.40;99.90
35563;DHT22;21665;40.108;18.302;2022-10-23T01:59:00;16.40;99.90
35563;DHT22;21665;40.108;18.302;2022-10-23T02:01:30;16.50;99.90
35563;DHT22;21665;40.108;18.302;2022-10-23T02:04:02;16.50;99.90
35563;DHT22;21665;40.108;18.302;2022-10-23T02:06:34;16.60;99.90
35563;DHT22;21665;40.108;18.302;2022-10-23T02:09:09;16.60;99.90
35563;DHT22;21665;40.108;18.302;2022-10-23T02:11:51;16.60;99.90
35563;DHT22;21665;40.108;18.302;2022-10-23T02:14:28;16.60;99.90
35563;DHT22;21665;40.108;18.302;2022-10-23T02:19:59;16.70;99.90
35563;DHT22;21665;40.108;18.302;2022-10-23T02:22:33;16.70;99.90
35563;DHT22;21665;40.108;18.302;2022-10-23T02:25:12;16.70;99.90
35563;DHT22;21665;40.108;18.302;2022-10-23T02:27:54;16.70;99.90
35563;DHT22;21665;40.108;18.302;2022-10-23T02:30:29;16.70;99.90
35563;DHT22;21665;40.108;18.302;2022-10-23T02:33:08;16.90;99.90
35563;DHT22;21665;40.108;18.302;2022-10-23T02:35:36;17.00;99.90
35563;DHT22;21665;40.108;18.302;2022-10-23T02:38:35;17.10;99.90
35563;DHT22;21665;40.108;18.302;2022-10-23T02:41:31;17.10;99.90
35563;DHT22;21665;40.108;18.302;2022-10-23T02:44:14;17.10;99.90
35563;DHT22;21665;40.108;18.302;2022-10-23T02:52:40;17.10;99.90
35563;DHT22;21665;40.108;18.302;2022-10-23T02:57:55;17.10;99.90
35563;DHT22;21665;40.108;18.302;2022-10-23T03:00:23;17.10;99.90
35563;DHT22;21665;40.108;18.302;2022-10-23T03:03:12;17.10;99.90
35563;DHT22;21665;40.108;18.302;2022-10-23T03:05:41;17.10;99.90
35563;DHT22;21665;40.108;18.302;2022-10-23T03:08:12;17.00;99.90
35563;DHT22;21665;40.108;18.302;2022-10-23T03:10:41;17.00;99.90
35563;DHT22;21665;40.108;18.302;2022-10-23T03:13:09;17.00;99.90
35563;DHT22;21665;40.108;18.302;2022-10-23T03:15:43;17.00;99.90
35563;DHT22;21665;40.108;18.302;2022-10-23T03:18:20;17.00;99.90
35563;DHT22;21665;40.108;18.302;2022-10-23T03:20:50;16.90;99.90
35563;DHT22;21665;40.108;18.302;2022-10-23T03:23:20;16.90;99.90
35563;DHT22;21665;40.108;18.302;2022-10-23T03:25:48;16.90;99.90
35563;DHT22;21665;40.108;18.302;2022-10-23T03:28:32;16.90;99.90
35563;DHT22;21665;40.108;18.302;2022-10-23T03:30:59;16.90;99.90
35563;DHT22;21665;40.108;18.302;2022-10-23T03:33:30;16.90;99.90
35563;DHT22;21665;40.108;18.302;2022-10-23T03:36:05;16.90;99.90
35563;DHT22;21665;40.108;18.302;2022-10-23T03:38:39;16.90;99.90
35563;DHT22;21665;40.108;18.302;2022-10-23T03:41:28;17.00;99.90
35563;DHT22;21665;40.108;18.302;2022-10-23T03:43:58;17.00;99.90
35563;DHT22;21665;40.108;18.302;2022-10-23T03:46:25;17.10;99.90
35563;DHT22;21665;40.108;18.302;2022-10-23T03:48:54;17.10;99.90
35563;DHT22;21665;40.108;18.302;2022-10-23T03:51:24;17.10;99.90
35563;DHT22;21665;40.108;18.302;2022-10-23T03:53:54;17.10;99.90
35563;DHT22;21665;40.108;18.302;2022-10-23T03:56:37;17.20;99.90
35563;DHT22;21665;40.108;18.302;2022-10-23T04:02:45;17.10;99.90
35563;DHT22;21665;40.108;18.302;2022-10-23T04:05:13;17.10;99.90
35563;DHT22;21665;40.108;18.302;2022-10-23T04:08:11;17.20;99.90
35563;DHT22;21665;40.108;18.302;2022-10-23T04:10:56;17.20;99.90
35563;DHT22;21665;40.108;18.302;2022-10-23T04:13:34;17.20;99.90
35563;DHT22;21665;40.108;18.302;2022-10-23T04:16:09;17.20;99.90
35563;DHT22;21665;40.108;18.302;2022-10-23T04:18:40;17.10;99.90
35563;DHT22;21665;40.108;18.302;2022-10-23T04:21:12;17.10;99.90
35563;DHT22;21665;40.108;18.302;2022-10-23T04:23:42;17.10;99.90
35563;DHT22;21665;40.108;18.302;2022-10-23T04:26:24;17.00;99.90
35563;DHT22;21665;40.108;18.302;2022-10-23T04:28:51;17.00;99.90
35563;DHT22;21665;40.108;18.302;2022-10-23T04:31:18;17.10;99.90
35563;DHT22;21665;40.108;18.302;2022-10-23T04:33:45;17.10;99.90
35563;DHT22;21665;40.108;18.302;2022-10-23T04:36:25;17.10;99.90
35563;DHT22;21665;40.108;18.302;2022-10-23T04:38:52;17.10;99.90
35563;DHT22;21665;40.108;18.302;2022-10-23T04:41:20;17.10;99.90
35563;DHT22;21665;40.108;18.302;2022-10-23T04:43:47;17.10;99.90
35563;DHT22;21665;40.108;18.302;2022-10-23T04:46:16;17.20;99.90
35563;DHT22;21665;40.108;18.302;2022-10-23T04:48:46;17.20;99.90
35563;DHT22;21665;40.108;18.302;2022-10-23T04:51:26;17.10;99.90
35563;DHT22;21665;40.108;18.302;2022-10-23T04:53:59;17.20;99.90
35563;DHT22;21665;40.108;18.302;2022-10-23T04:56:46;17.10;99.90
35563;DHT22;21665;40.108;18.302;2022-10-23T04:59:19;17.20;99.90
35563;DHT22;21665;40.108;18.302;2022-10-23T05:01:49;17.20;99.90
35563;DHT22;21665;40.108;18.302;2022-10-23T05:04:20;17.20;99.90
35563;DHT22;21665;40.108;18.302;2022-10-23T05:07:05;17.20;99.90
35563;DHT22;21665;40.108;18.302;2022-10-23T05:09:44;17.20;99.90
35563;DHT22;21665;40.108;18.302;2022-10-23T05:12:32;17.20;99.90
35563;DHT22;21665;40.108;18.302;2022-10-23T05:14:58;17.20;99.90
35563;DHT22;21665;40.108;18.302;2022-10-23T05:17:33;17.30;99.90
35563;DHT22;21665;40.108;18.302;2022-10-23T05:20:06;17.20;99.90
35563;DHT22;21665;40.108;18.302;2022-10-23T05:22:36;17.30;99.90
35563;DHT22;21665;40.108;18.302;2022-10-23T05:25:12;17.30;99.90
35563;DHT22;21665;40.108;18.302;2022-10-23T05:27:44;17.40;99.90
35563;DHT22;21665;40.108;18.302;2022-10-23T05:30:23;17.40;99.90
35563;DHT22;21665;40.108;18.302;2022-10-23T05:35:54;17.50;99.90
35563;DHT22;21665;40.108;18.302;2022-10-23T05:38:30;17.60;99.90
35563;DHT22;21665;40.108;18.302;2022-10-23T05:43:43;17.80;99.90
35563;DHT22;21665;40.108;18.302;2022-10-23T05:46:31;17.90;99.90
35563;DHT22;21665;40.108;18.302;2022-10-23T05:49:25;17.90;99.90
35563;DHT22;21665;40.108;18.302;2022-10-23T05:52:12;18.10;99.90
35563;DHT22;21665;40.108;18.302;2022-10-23T05:54:52;18.20;99.90
35563;DHT22;21665;40.108;18.302;2022-10-23T05:57:38;18.10;99.90
35563;DHT22;21665;40.108;18.302;2022-10-23T06:00:09;18.20;99.90
35563;DHT22;21665;40.108;18.302;2022-10-23T06:05:34;18.20;99.90
35563;DHT22;21665;40.108;18.302;2022-10-23T06:08:18;18.10;99.90
35563;DHT22;21665;40.108;18.302;2022-10-23T06:10:57;18.00;99.90
35563;DHT22;21665;40.108;18.302;2022-10-23T06:13:30;17.90;99.90
35563;DHT22;21665;40.108;18.302;2022-10-23T06:15:57;17.80;99.90
35563;DHT22;21665;40.108;18.302;2022-10-23T06:18:25;17.80;99.90
35563;DHT22;21665;40.108;18.302;2022-10-23T06:21:00;17.80;99.90
35563;DHT22;21665;40.108;18.302;2022-10-23T06:23:33;17.90;99.90
35563;DHT22;21665;40.108;18.302;2022-10-23T06:26:10;17.90;99.90
35563;DHT22;21665;40.108;18.302;2022-10-23T06:28:53;17.90;99.90
35563;DHT22;21665;40.108;18.302;2022-10-23T06:31:20;18.10;99.90
35563;DHT22;21665;40.108;18.302;2022-10-23T06:33:56;18.10;99.90
35563;DHT22;21665;40.108;18.302;2022-10-23T06:36:24;18.30;99.90
35563;DHT22;21665;40.108;18.302;2022-10-23T06:38:53;18.40;99.90
35563;DHT22;21665;40.108;18.302;2022-10-23T06:41:30;18.50;99.90
35563;DHT22;21665;40.108;18.302;2022-10-23T06:43:57;18.60;99.90
35563;DHT22;21665;40.108;18.302;2022-10-23T06:46:38;18.60;99.90
35563;DHT22;21665;40.108;18.302;2022-10-23T06:49:23;18.70;99.90
35563;DHT22;21665;40.108;18.302;2022-10-23T06:51:49;18.90;99.90
35563;DHT22;21665;40.108;18.302;2022-10-23T06:54:20;18.80;99.90
35563;DHT22;21665;40.108;18.302;2022-10-23T06:56:50;18.80;99.90
35563;DHT22;21665;40.108;18.302;2022-10-23T06:59:21;19.00;99.90
35563;DHT22;21665;40.108;18.302;2022-10-23T07:01:50;19.20;99.90
35563;DHT22;21665;40.108;18.302;2022-10-23T07:04:18;19.30;99.90
35563;DHT22;21665;40.108;18.302;2022-10-23T07:06:45;19.40;99.90
35563;DHT22;21665;40.108;18.302;2022-10-23T07:09:12;19.60;99.90
35563;DHT22;21665;40.108;18.302;2022-10-23T07:11:59;19.80;99.90
35563;DHT22;21665;40.108;18.302;2022-10-23T07:14:34;19.80;99.90
35563;DHT22;21665;40.108;18.302;2022-10-23T07:17:02;19.90;99.90
35563;DHT22;21665;40.108;18.302;2022-10-23T07:19:29;20.00;99.90
35563;DHT22;21665;40.108;18.302;2022-10-23T07:22:14;20.10;99.90
35563;DHT22;21665;40.108;18.302;2022-10-23T07:24:51;20.00;99.90
35563;DHT22;21665;40.108;18.302;2022-10-23T07:27:24;20.10;99.90
35563;DHT22;21665;40.108;18.302;2022-10-23T07:29:56;20.00;99.90
35563;DHT22;21665;40.108;18.302;2022-10-23T07:32:24;20.10;99.90
35563;DHT22;21665;40.108;18.302;2022-10-23T07:35:12;20.30;99.90
35563;DHT22;21665;40.108;18.302;2022-10-23T07:37:48;20.50;99.90
35563;DHT22;21665;40.108;18.302;2022-10-23T07:40:15;20.60;99.90
35563;DHT22;21665;40.108;18.302;2022-10-23T07:42:44;20.70;99.90
35563;DHT22;21665;40.108;18.302;2022-10-23T07:45:11;20.90;99.90
35563;DHT22;21665;40.108;18.302;2022-10-23T07:47:50;20.90;99.90
35563;DHT22;21665;40.108;18.302;2022-10-23T07:50:19;21.00;99.90
35563;DHT22;21665;40.108;18.302;2022-10-23T07:52:50;21.10;99.90
35563;DHT22;21665;40.108;18.302;2022-10-23T07:55:17;21.20;99.90
35563;DHT22;21665;40.108;18.302;2022-10-23T07:57:56;21.20;99.90
35563;DHT22;21665;40.108;18.302;2022-10-23T08:00:32;21.20;99.90
35563;DHT22;21665;40.108;18.302;2022-10-23T08:03:09;21.30;99.90
35563;DHT22;21665;40.108;18.302;2022-10-23T08:05:38;21.60;99.90
35563;DHT22;21665;40.108;18.302;2022-10-23T08:08:04;21.60;99.90
35563;DHT22;21665;40.108;18.302;2022-10-23T08:10:32;21.70;99.90
35563;DHT22;21665;40.108;18.302;2022-10-23T08:18:23;21.80;99.90
35563;DHT22;21665;40.108;18.302;2022-10-23T08:20:50;21.90;99.90
35563;DHT22;21665;40.108;18.302;2022-10-23T08:23:19;22.00;99.90
35563;DHT22;21665;40.108;18.302;2022-10-23T08:25:46;22.30;99.90
35563;DHT22;21665;40.108;18.302;2022-10-23T08:28:15;22.50;99.90
35563;DHT22;21665;40.108;18.302;2022-10-23T08:30:55;22.70;99.90
35563;DHT22;21665;40.108;18.302;2022-10-23T08:33:23;22.70;99.90
35563;DHT22;21665;40.108;18.302;2022-10-23T08:35:50;22.80;99.90
35563;DHT22;21665;40.108;18.302;2022-10-23T08:38:25;23.10;99.90
35563;DHT22;21665;40.108;18.302;2022-10-23T08:40:51;23.10;99.90
35563;DHT22;21665;40.108;18.302;2022-10-23T08:44:01;23.10;99.90
35563;DHT22;21665;40.108;18.302;2022-10-23T08:46:39;23.20;99.90
35563;DHT22;21665;40.108;18.302;2022-10-23T08:49:39;23.20;99.90
35563;DHT22;21665;40.108;18.302;2022-10-23T08:55:32;23.20;99.90
35563;DHT22;21665;40.108;18.302;2022-10-23T08:58:06;23.00;99.90
35563;DHT22;21665;40.108;18.302;2022-10-23T09:00:36;22.90;99.90
35563;DHT22;21665;40.108;18.302;2022-10-23T09:03:04;22.70;99.90
35563;DHT22;21665;40.108;18.302;2022-10-23T09:06:06;22.80;99.90
35563;DHT22;21665;40.108;18.302;2022-10-23T09:08:46;23.10;99.90
35563;DHT22;21665;40.108;18.302;2022-10-23T09:11:37;23.30;99.90
35563;DHT22;21665;40.108;18.302;2022-10-23T09:14:55;23.50;99.90
35563;DHT22;21665;40.108;18.302;2022-10-23T09:22:47;23.30;99.90
35563;DHT22;21665;40.108;18.302;2022-10-23T09:25:24;23.30;99.90
35563;DHT22;21665;40.108;18.302;2022-10-23T09:27:55;23.10;99.90
35563;DHT22;21665;40.108;18.302;2022-10-23T09:30:38;23.30;99.90
35563;DHT22;21665;40.108;18.302;2022-10-23T09:33:24;23.70;99.90
35563;DHT22;21665;40.108;18.302;2022-10-23T09:35:55;24.00;99.90
35563;DHT22;21665;40.108;18.302;2022-10-23T09:38:34;24.10;99.90
35563;DHT22;21665;40.108;18.302;2022-10-23T09:41:06;24.00;99.90
35563;DHT22;21665;40.108;18.302;2022-10-23T09:43:36;24.10;99.90
35563;DHT22;21665;40.108;18.302;2022-10-23T09:46:06;24.10;99.90
35563;DHT22;21665;40.108;18.302;2022-10-23T09:48:35;24.10;99.90
35563;DHT22;21665;40.108;18.302;2022-10-23T09:51:17;24.30;99.90
35563;DHT22;21665;40.108;18.302;2022-10-23T09:53:53;24.20;99.90
35563;DHT22;21665;40.108;18.302;2022-10-23T09:56:32;23.90;99.90
35563;DHT22;21665;40.108;18.302;2022-10-23T10:02:16;24.20;99.90
35563;DHT22;21665;40.108;18.302;2022-10-23T10:04:54;24.30;99.90
35563;DHT22;21665;40.108;18.302;2022-10-23T10:07:25;24.10;99.90
35563;DHT22;21665;40.108;18.302;2022-10-23T10:09:55;24.00;99.90
35563;DHT22;21665;40.108;18.302;2022-10-23T10:12:30;24.30;99.90
35563;DHT22;21665;40.108;18.302;2022-10-23T10:15:26;24.10;99.90
35563;DHT22;21665;40.108;18.302;2022-10-23T10:27:10;24.50;99.90
35563;DHT22;21665;40.108;18.302;2022-10-23T10:32:30;24.00;99.90
35563;DHT22;21665;40.108;18.302;2022-10-23T10:35:21;24.10;99.90
35563;DHT22;21665;40.108;18.302;2022-10-23T10:40:46;24.30;99.90
35563;DHT22;21665;40.108;18.302;2022-10-23T10:46:13;24.20;99.90
35563;DHT22;21665;40.108;18.302;2022-10-23T10:52:41;24.70;99.90
35563;DHT22;21665;40.108;18.302;2022-10-23T10:57:40;24.80;99.90
35563;DHT22;21665;40.108;18.302;2022-10-23T11:00:21;24.70;99.90
35563;DHT22;21665;40.108;18.302;2022-10-23T11:03:00;24.70;99.90
35563;DHT22;21665;40.108;18.302;2022-10-23T11:05:40;24.80;99.90
35563;DHT22;21665;40.108;18.302;2022-10-23T11:08:47;24.60;99.90
35563;DHT22;21665;40.108;18.302;2022-10-23T11:11:15;24.40;99.90
35563;DHT22;21665;40.108;18.302;2022-10-23T11:13:44;24.50;99.90
35563;DHT22;21665;40.108;18.302;2022-10-23T11:16:29;24.70;99.90
35563;DHT22;21665;40.108;18.302;2022-10-23T11:36:16;24.90;99.90
35563;DHT22;21665;40.108;18.302;2022-10-23T11:38:50;24.80;99.90
35563;DHT22;21665;40.108;18.302;2022-10-23T11:41:27;25.10;99.90
35563;DHT22;21665;40.108;18.302;2022-10-23T11:44:00;25.00;99.90
35563;DHT22;21665;40.108;18.302;2022-10-23T11:46:33;25.10;99.90
35563;DHT22;21665;40.108;18.302;2022-10-23T11:49:02;25.20;99.90
35563;DHT22;21665;40.108;18.302;2022-10-23T11:51:37;25.30;99.90
35563;DHT22;21665;40.108;18.302;2022-10-23T11:54:20;25.10;99.90
35563;DHT22;21665;40.108;18.302;2022-10-23T11:56:53;25.10;99.90
35563;DHT22;21665;40.108;18.302;2022-10-23T12:29:34;24.90;99.90
35563;DHT22;21665;40.108;18.302;2022-10-23T13:05:32;24.70;99.90
35563;DHT22;21665;40.108;18.302;2022-10-23T13:17:20;24.90;99.90
35563;DHT22;21665;40.108;18.302;2022-10-23T13:20:53;24.80;99.90
35563;DHT22;21665;40.108;18.302;2022-10-23T13:27:30;24.70;99.90
35563;DHT22;21665;40.108;18.302;2022-10-23T13:39:41;24.40;99.90
35563;DHT22;21665;40.108;18.302;2022-10-23T13:42:35;24.40;99.90
35563;DHT22;21665;40.108;18.302;2022-10-23T13:58:01;24.50;99.90
35563;DHT22;21665;40.108;18.302;2022-10-23T14:01:31;24.40;99.90
35563;DHT22;21665;40.108;18.302;2022-10-23T14:08:51;24.30;99.90
35563;DHT22;21665;40.108;18.302;2022-10-23T14:19:59;24.10;99.90
35563;DHT22;21665;40.108;18.302;2022-10-23T14:22:31;24.20;99.90
35563;DHT22;21665;40.108;18.302;2022-10-23T14:30:49;24.00;99.90
35563;DHT22;21665;40.108;18.302;2022-10-23T14:33:16;23.90;99.90
35563;DHT22;21665;40.108;18.302;2022-10-23T14:35:42;23.80;99.90
35563;DHT22;21665;40.108;18.302;2022-10-23T14:38:08;23.80;99.90
35563;DHT22;21665;40.108;18.302;2022-10-23T14:40:38;23.70;99.90
35563;DHT22;21665;40.108;18.302;2022-10-23T14:43:05;23.70;99.90
35563;DHT22;21665;40.108;18.302;2022-10-23T14:45:32;23.60;99.90
35563;DHT22;21665;40.108;18.302;2022-10-23T14:47:58;23.50;99.90
35563;DHT22;21665;40.108;18.302;2022-10-23T14:50:27;23.50;99.90
35563;DHT22;21665;40.108;18.302;2022-10-23T14:52:53;23.40;99.90
35563;DHT22;21665;40.108;18.302;2022-10-23T14:55:22;23.40;99.90
35563;DHT22;21665;40.108;18.302;2022-10-23T14:57:53;23.20;99.90
35563;DHT22;21665;40.108;18.302;2022-10-23T15:00:21;23.10;99.90
35563;DHT22;21665;40.108;18.302;2022-10-23T15:02:49;23.00;99.90
35563;DHT22;21665;40.108;18.302;2022-10-23T15:05:16;22.90;99.90
35563;DHT22;21665;40.108;18.302;2022-10-23T15:07:43;22.90;99.90
35563;DHT22;21665;40.108;18.302;2022-10-23T15:10:10;22.80;99.90
35563;DHT22;21665;40.108;18.302;2022-10-23T15:12:40;22.70;99.90
35563;DHT22;21665;40.108;18.302;2022-10-23T15:15:07;22.60;99.90
35563;DHT22;21665;40.108;18.302;2022-10-23T15:17:34;22.60;99.90
35563;DHT22;21665;40.108;18.302;2022-10-23T15:20:04;22.50;99.90
35563;DHT22;21665;40.108;18.302;2022-10-23T15:22:30;22.40;99.90
35563;DHT22;21665;40.108;18.302;2022-10-23T15:25:18;22.30;99.90
35563;DHT22;21665;40.108;18.302;2022-10-23T15:27:47;22.20;99.90
35563;DHT22;21665;40.108;18.302;2022-10-23T15:30:14;22.10;99.90
35563;DHT22;21665;40.108;18.302;2022-10-23T15:32:40;22.00;99.90
35563;DHT22;21665;40.108;18.302;2022-10-23T15:35:07;21.90;99.90
35563;DHT22;21665;40.108;18.302;2022-10-23T15:37:33;21.80;99.90
35563;DHT22;21665;40.108;18.302;2022-10-23T15:40:00;21.70;99.90
35563;DHT22;21665;40.108;18.302;2022-10-23T15:42:26;21.60;99.90
35563;DHT22;21665;40.108;18.302;2022-10-23T15:44:56;21.50;99.90
35563;DHT22;21665;40.108;18.302;2022-10-23T15:47:26;21.40;99.90
35563;DHT22;21665;40.108;18.302;2022-10-23T15:49:52;21.30;99.90
35563;DHT22;21665;40.108;18.302;2022-10-23T15:52:18;21.30;99.90
35563;DHT22;21665;40.108;18.302;2022-10-23T15:54:48;21.20;99.90
35563;DHT22;21665;40.108;18.302;2022-10-23T15:57:14;21.20;99.90
35563;DHT22;21665;40.108;18.302;2022-10-23T15:59:40;21.10;99.90
35563;DHT22;21665;40.108;18.302;2022-10-23T16:02:08;21.10;99.90
35563;DHT22;21665;40.108;18.302;2022-10-23T16:04:35;21.00;99.90
35563;DHT22;21665;40.108;18.302;2022-10-23T16:07:01;20.90;99.90
35563;DHT22;21665;40.108;18.302;2022-10-23T16:09:28;20.90;99.90
35563;DHT22;21665;40.108;18.302;2022-10-23T16:11:55;20.80;99.90
35563;DHT22;21665;40.108;18.302;2022-10-23T16:14:57;20.70;99.90
35563;DHT22;21665;40.108;18.302;2022-10-23T16:18:23;20.60;99.90
35563;DHT22;21665;40.108;18.302;2022-10-23T16:27:41;20.30;99.90
35563;DHT22;21665;40.108;18.302;2022-10-23T16:33:04;20.20;99.90
35563;DHT22;21665;40.108;18.302;2022-10-23T16:35:30;20.20;99.90
35563;DHT22;21665;40.108;18.302;2022-10-23T16:38:06;20.10;99.90
35563;DHT22;21665;40.108;18.302;2022-10-23T16:40:33;20.10;99.90
35563;DHT22;21665;40.108;18.302;2022-10-23T16:43:21;20.00;99.90
35563;DHT22;21665;40.108;18.302;2022-10-23T16:46:19;20.00;99.90
35563;DHT22;21665;40.108;18.302;2022-10-23T16:48:49;19.90;99.90
35563;DHT22;21665;40.108;18.302;2022-10-23T16:51:21;19.80;99.90
35563;DHT22;21665;40.108;18.302;2022-10-23T16:53:49;19.70;99.90
35563;DHT22;21665;40.108;18.302;2022-10-23T16:56:19;19.70;99.90
35563;DHT22;21665;40.108;18.302;2022-10-23T16:58:49;19.60;99.90
35563;DHT22;21665;40.108;18.302;2022-10-23T17:01:21;19.60;99.90
35563;DHT22;21665;40.108;18.302;2022-10-23T17:03:54;19.60;99.90
35563;DHT22;21665;40.108;18.302;2022-10-23T17:06:24;19.50;99.90
35563;DHT22;21665;40.108;18.302;2022-10-23T17:08:51;19.50;99.90
35563;DHT22;21665;40.108;18.302;2022-10-23T17:11:27;19.50;99.90
35563;DHT22;21665;40.108;18.302;2022-10-23T17:13:57;19.40;99.90
35563;DHT22;21665;40.108;18.302;2022-10-23T17:16:34;19.30;99.90
35563;DHT22;21665;40.108;18.302;2022-10-23T17:19:03;19.30;99.90
35563;DHT22;21665;40.108;18.302;2022-10-23T17:21:35;19.30;99.90
35563;DHT22;21665;40.108;18.302;2022-10-23T17:24:04;19.20;99.90
35563;DHT22;21665;40.108;18.302;2022-10-23T17:26:31;19.20;99.90
35563;DHT22;21665;40.108;18.302;2022-10-23T17:29:00;19.10;99.90
35563;DHT22;21665;40.108;18.302;2022-10-23T17:31:31;19.10;99.90
35563;DHT22;21665;40.108;18.302;2022-10-23T17:34:00;19.10;99.90
35563;DHT22;21665;40.108;18.302;2022-10-23T17:36:34;19.00;99.90
35563;DHT22;21665;40.108;18.302;2022-10-23T17:39:04;19.00;99.90
35563;DHT22;21665;40.108;18.302;2022-10-23T17:41:33;19.00;99.90
35563;DHT22;21665;40.108;18.302;2022-10-23T17:44:03;19.00;99.90
35563;DHT22;21665;40.108;18.302;2022-10-23T17:46:29;19.00;99.90
35563;DHT22;21665;40.108;18.302;2022-10-23T17:48:58;18.90;99.90
35563;DHT22;21665;40.108;18.302;2022-10-23T17:51:36;18.90;99.90
35563;DHT22;21665;40.108;18.302;2022-10-23T17:54:10;18.90;99.90
35563;DHT22;21665;40.108;18.302;2022-10-23T18:00:15;18.80;99.90
35563;DHT22;21665;40.108;18.302;2022-10-23T18:03:08;18.80;99.90
35563;DHT22;21665;40.108;18.302;2022-10-23T18:06:14;18.70;99.90
35563;DHT22;21665;40.108;18.302;2022-10-23T18:10:06;18.70;99.90
35563;DHT22;21665;40.108;18.302;2022-10-23T18:13:20;18.70;99.90
35563;DHT22;21665;40.108;18.302;2022-10-23T18:16:19;18.70;99.90
35563;DHT22;21665;40.108;18.302;2022-10-23T18:19:13;18.70;99.90
35563;DHT22;21665;40.108;18.302;2022-10-23T18:21:56;18.60;99.90
35563;DHT22;21665;40.108;18.302;2022-10-23T18:26:56;18.60;99.90
35563;DHT22;21665;40.108;18.302;2022-10-23T18:29:22;18.50;99.90
35563;DHT22;21665;40.108;18.302;2022-10-23T18:31:55;18.50;99.90
35563;DHT22;21665;40.108;18.302;2022-10-23T18:34:23;18.50;99.90
35563;DHT22;21665;40.108;18.302;2022-10-23T18:36:52;18.50;99.90
35563;DHT22;21665;40.108;18.302;2022-10-23T18:39:37;18.40;99.90
35563;DHT22;21665;40.108;18.302;2022-10-23T18:42:06;18.50;99.90
35563;DHT22;21665;40.108;18.302;2022-10-23T18:44:33;18.50;99.90
35563;DHT22;21665;40.108;18.302;2022-10-23T18:46:59;18.50;99.90
35563;DHT22;21665;40.108;18.302;2022-10-23T18:49:26;18.50;99.90
35563;DHT22;21665;40.108;18.302;2022-10-23T18:52:13;18.50;99.90
35563;DHT22;21665;40.108;18.302;2022-10-23T18:54:40;18.40;99.90
35563;DHT22;21665;40.108;18.302;2022-10-23T18:57:06;18.40;99.90
35563;DHT22;21665;40.108;18.302;2022-10-23T18:59:33;18.40;99.90
35563;DHT22;21665;40.108;18.302;2022-10-23T19:02:00;18.30;99.90
35563;DHT22;21665;40.108;18.302;2022-10-23T19:04:26;18.30;99.90
35563;DHT22;21665;40.108;18.302;2022-10-23T19:06:53;18.30;99.90
35563;DHT22;21665;40.108;18.302;2022-10-23T19:09:20;18.30;99.90
35563;DHT22;21665;40.108;18.302;2022-10-23T19:11:47;18.30;99.90
35563;DHT22;21665;40.108;18.302;2022-10-23T19:14:14;18.20;99.90
35563;DHT22;21665;40.108;18.302;2022-10-23T19:17:03;18.20;99.90
35563;DHT22;21665;40.108;18.302;2022-10-23T19:19:41;18.20;99.90
35563;DHT22;21665;40.108;18.302;2022-10-23T19:22:11;18.20;99.90
35563;DHT22;21665;40.108;18.302;2022-10-23T19:27:42;18.10;99.90
35563;DHT22;21665;40.108;18.302;2022-10-23T19:30:11;18.10;99.90
35563;DHT22;21665;40.108;18.302;2022-10-23T19:32:43;18.20;99.90
35563;DHT22;21665;40.108;18.302;2022-10-23T19:35:12;18.10;99.90
35563;DHT22;21665;40.108;18.302;2022-10-23T19:37:39;18.10;99.90
35563;DHT22;21665;40.108;18.302;2022-10-23T19:40:07;18.10;99.90
35563;DHT22;21665;40.108;18.302;2022-10-23T19:42:35;18.00;99.90
35563;DHT22;21665;40.108;18.302;2022-10-23T19:45:10;17.90;99.90
35563;DHT22;21665;40.108;18.302;2022-10-23T19:47:38;17.90;99.90
35563;DHT22;21665;40.108;18.302;2022-10-23T19:50:06;17.90;99.90
35563;DHT22;21665;40.108;18.302;2022-10-23T19:52:33;17.70;99.90
35563;DHT22;21665;40.108;18.302;2022-10-23T19:55:00;17.80;99.90
35563;DHT22;21665;40.108;18.302;2022-10-23T19:57:29;17.70;99.90
35563;DHT22;21665;40.108;18.302;2022-10-23T19:59:59;17.70;99.90